Tiszavasvari, Hungary
Current Conditions -  °F | °C
As of 2:45 PM on Friday 24 Oct 2014 (Local Time) from LHDC Reporting Station
Overcast Overcast  
Wind Chill: 40°   Ceiling: 600
Heat Index: 45°   Visibility: 4mi
Dew Point: 43°   Wind: 9mph
Humidity: 93%   Direction: 20°NNE
Pressure: 30.06"   Gusts: NA
Location:  47.97°N, 21.36°E
Report Text: LHDC 241245Z 02008KT 7000 BKN006 OVC015 07/06 Q1018 RERA NOSIG
Loading
Personal Weather Stations






























Interactive Weather Map
Tropical Storm Tracking
New forecast layout! Learn more

10-Day Weather Forecast

Advertisements
Track Severe Weather on mobile